Weather History for KFDW - April, 2014

Change the Weather History Date:

Tuesday, April 1, 2014

  Actual Average (KCUB) Record (KCUB)
Temperature  
Mean Temperature 68 °F 61 °F  
Max Temperature 84 °F 73 °F - ()
Min Temperature 53 °F 49 °F - ()
Degree Days  
Heating Degree Days 0 5  
Month to date heating degree days 5  
Since 1 July heating degree days 2208  
Cooling Degree Days 4 1  
Month to date cooling degree days 1  
Year to date cooling degree days 19  
Growing Degree Days 18 (Base 50)    
Moisture  
Dew Point 30 °F    
Average Humidity 26    
Maximum Humidity 44    
Minimum Humidity 12    
Precipitation  
Precipitation 0.00 in 0.12 in - ()
Month to date precipitation 0.12  
Year to date precipitation 11.28  
Sea Level Pressure  
Sea Level Pressure 30.09 in    
Wind  
Wind Speed 6 mph (SSW)    
Max Wind Speed 14 mph    
Max Gust Speed 20 mph    
Visibility 10 miles    
Events      
T = Trace of Precipitation, MM = Missing Value Source: NWS Daily Summary

Daily Weather History Graph

Daily Weather History Graph

Search for Another Location

Airport or City:

Trip Planner

Search our weather history database for the weather conditions in past years. The results will help you decide how hot, cold, wet, or windy it might be!

Date:

Astronomy

Apr. 01, 2014 Rise Set
Actual Time 7:11 AM EDT 7:45 PM EDT
Civil Twilight 6:46 AM EDT 8:10 PM EDT
Nautical Twilight 6:16 AM EDT 8:40 PM EDT
Astronomical Twilight 5:46 AM EDT 9:10 PM EDT
Moon 8:18 AM EDT (4/1) 10:00 PM EDT (4/1)
Length of Visible Light 13h 24m
Length of Day
12h 33m
Waxing Crescent, 4% of the Moon is Illuminated
Apr 1
Waxing Crescent
Apr 7
First Quarter
Apr 15
Full
Apr 22
Last Quarter
Apr 29
New

Hourly Weather History & Observations

Time (EDT) Temp. Dew Point Humidity Pressure Visibility Wind Dir Wind Speed Gust Speed Precip Events Conditions
12:15 AM 62.6 °F 21.2 °F 20% 30.10 in 10.0 mi South 3.5 mph - N/A   Clear
12:35 AM 60.8 °F 23.0 °F 23% 30.11 in 10.0 mi SSE 3.5 mph - N/A   Clear
12:55 AM 60.8 °F 23.0 °F 23% 30.11 in 10.0 mi South 4.6 mph - N/A   Clear
1:15 AM 59.0 °F 24.8 °F 27% 30.10 in 10.0 mi SSE 5.8 mph - N/A   Clear
1:35 AM 57.2 °F 26.6 °F 31% 30.10 in 10.0 mi SSE 4.6 mph - N/A   Clear
1:55 AM 57.2 °F 26.6 °F 31% 30.10 in 10.0 mi SSE 6.9 mph - N/A   Clear
2:15 AM 55.4 °F 26.6 °F 33% 30.10 in 10.0 mi SSE 8.1 mph - N/A   Clear
2:35 AM 57.2 °F 26.6 °F 31% 30.09 in 10.0 mi SSE 6.9 mph - N/A   Clear
2:55 AM 55.4 °F 26.6 °F 33% 30.09 in 10.0 mi SSE 8.1 mph - N/A   Clear
3:15 AM 57.2 °F 26.6 °F 31% 30.08 in 10.0 mi SSE 6.9 mph - N/A   Clear
3:35 AM 55.4 °F 26.6 °F 33% 30.09 in 10.0 mi SSE 5.8 mph - N/A   Clear
3:55 AM 55.4 °F 26.6 °F 33% 30.08 in 10.0 mi SSE 6.9 mph - N/A   Clear
4:15 AM 55.4 °F 26.6 °F 33% 30.09 in 10.0 mi South 5.8 mph - N/A   Clear
4:35 AM 59.0 °F 24.8 °F 27% 30.09 in 10.0 mi South 6.9 mph - N/A   Clear
4:55 AM 59.0 °F 26.6 °F 29% 30.08 in 10.0 mi SSW 6.9 mph - N/A   Clear
5:15 AM 59.0 °F 26.6 °F 29% 30.08 in 10.0 mi SSW 6.9 mph - N/A   Clear
5:35 AM 59.0 °F 28.4 °F 31% 30.09 in 10.0 mi SSW 6.9 mph - N/A   Clear
5:55 AM 57.2 °F 28.4 °F 33% 30.09 in 10.0 mi SSW 6.9 mph - N/A   Clear
6:15 AM 57.2 °F 30.2 °F 36% 30.09 in 10.0 mi SSW 6.9 mph - N/A   Clear
6:35 AM 57.2 °F 30.2 °F 36% 30.09 in 10.0 mi SSW 5.8 mph - N/A   Clear
6:55 AM 57.2 °F 30.2 °F 36% 30.09 in 10.0 mi South 5.8 mph - N/A   Clear
7:15 AM 53.6 °F 32.0 °F 44% 30.10 in 10.0 mi South 5.8 mph - N/A   Clear
7:35 AM 53.6 °F 30.2 °F 41% 30.11 in 10.0 mi South 4.6 mph - N/A   Clear
7:55 AM 53.6 °F 30.2 °F 41% 30.11 in 10.0 mi South 4.6 mph - N/A   Clear
8:15 AM 53.6 °F 32.0 °F 44% 30.12 in 10.0 mi SSW 5.8 mph - N/A   Clear
8:35 AM 55.4 °F 32.0 °F 41% 30.11 in 10.0 mi South 4.6 mph - N/A   Clear
8:55 AM 59.0 °F 33.8 °F 39% 30.12 in 10.0 mi SSW 3.5 mph - N/A   Clear
9:15 AM 59.0 °F 33.8 °F 39% 30.12 in 10.0 mi SSW 3.5 mph - N/A   Clear
9:35 AM 60.8 °F 35.6 °F 39% 30.13 in 10.0 mi WSW 3.5 mph - N/A   Clear
9:55 AM 60.8 °F 35.6 °F 39% 30.14 in 10.0 mi Calm Calm - N/A   Clear
10:15 AM 62.6 °F 35.6 °F 37% 30.14 in 10.0 mi WSW 4.6 mph - N/A   Clear
10:35 AM 64.4 °F 37.4 °F 37% 30.14 in 10.0 mi Calm Calm - N/A   Clear
10:55 AM 69.8 °F 35.6 °F 28% 30.14 in 10.0 mi WSW 4.6 mph - N/A   Clear
11:15 AM 69.8 °F 37.4 °F 31% 30.14 in 10.0 mi SW 6.9 mph - N/A   Clear
11:35 AM 71.6 °F 37.4 °F 29% 30.14 in 10.0 mi WSW 6.9 mph - N/A   Clear
11:55 AM 73.4 °F 35.6 °F 25% 30.14 in 10.0 mi WSW 8.1 mph - N/A   Clear
12:15 PM 75.2 °F 35.6 °F 24% 30.14 in 10.0 mi WSW 6.9 mph - N/A   Clear
12:35 PM 77.0 °F 33.8 °F 21% 30.13 in 10.0 mi West 10.4 mph - N/A   Clear
12:55 PM 77.0 °F 30.2 °F 18% 30.12 in 10.0 mi West 9.2 mph - N/A   Clear
1:15 PM 78.8 °F 26.6 °F 15% 30.11 in 10.0 mi West 9.2 mph 16.1 mph N/A   Clear
1:35 PM 80.6 °F 26.6 °F 14% 30.11 in 10.0 mi West 12.7 mph - N/A   Clear
1:55 PM 80.6 °F 28.4 °F 15% 30.10 in 10.0 mi WNW 6.9 mph 19.6 mph N/A   Clear
2:15 PM 80.6 °F 28.4 °F 15% 30.09 in 10.0 mi WSW 6.9 mph - N/A   Clear
2:35 PM 80.6 °F 26.6 °F 14% 30.08 in 10.0 mi SW 8.1 mph - N/A   Clear
2:55 PM 82.4 °F 24.8 °F 12% 30.07 in 10.0 mi WSW 9.2 mph - N/A   Clear
3:15 PM 82.4 °F 28.4 °F 14% 30.06 in 10.0 mi WSW 6.9 mph 17.3 mph N/A   Clear
3:35 PM 82.4 °F 28.4 °F 14% 30.06 in 10.0 mi SW 10.4 mph - N/A   Clear
3:55 PM 82.4 °F 28.4 °F 14% 30.05 in 10.0 mi West 9.2 mph - N/A   Clear
4:15 PM 80.6 °F 28.4 °F 15% 30.04 in 10.0 mi West 9.2 mph - N/A   Clear
4:35 PM 84.2 °F 30.2 °F 14% 30.04 in 10.0 mi WSW 9.2 mph - N/A   Clear
4:55 PM 82.4 °F 32.0 °F 16% 30.03 in 10.0 mi SW 11.5 mph 19.6 mph N/A   Clear
5:15 PM 82.4 °F 32.0 °F 16% 30.03 in 10.0 mi South 13.8 mph 17.3 mph N/A   Clear
5:35 PM 82.4 °F 30.2 °F 15% 30.03 in 10.0 mi SSW 11.5 mph 16.1 mph N/A   Clear
5:55 PM 82.4 °F 30.2 °F 15% 30.03 in 10.0 mi SSW 11.5 mph 18.4 mph N/A   Clear
6:15 PM 80.6 °F 30.2 °F 16% 30.03 in 10.0 mi SSW 8.1 mph 16.1 mph N/A   Clear
6:35 PM 80.6 °F 32.0 °F 17% 30.03 in 10.0 mi SSW 9.2 mph - N/A   Clear
6:55 PM 80.6 °F 32.0 °F 17% 30.04 in 10.0 mi SW 10.4 mph - N/A   Clear
7:15 PM 78.8 °F 32.0 °F 18% 30.04 in 10.0 mi SSW 6.9 mph - N/A   Clear
7:35 PM 78.8 °F 33.8 °F 20% 30.04 in 10.0 mi SSW 6.9 mph - N/A   Clear
7:55 PM 75.2 °F 33.8 °F 22% 30.05 in 10.0 mi SSW 5.8 mph - N/A   Clear
8:15 PM 73.4 °F 33.8 °F 23% 30.05 in 10.0 mi SSW 6.9 mph - N/A   Clear
8:35 PM 71.6 °F 33.8 °F 25% 30.05 in 10.0 mi SSW 6.9 mph - N/A   Clear
8:55 PM 71.6 °F 33.8 °F 25% 30.06 in 10.0 mi SSW 4.6 mph - N/A   Clear
9:15 PM 69.8 °F 33.8 °F 27% 30.06 in 10.0 mi South 5.8 mph - N/A   Clear
9:35 PM 71.6 °F 33.8 °F 25% 30.07 in 10.0 mi SSW 6.9 mph - N/A   Clear
9:55 PM 69.8 °F 33.8 °F 27% 30.07 in 10.0 mi South 5.8 mph - N/A   Clear
10:15 PM 69.8 °F 33.8 °F 27% 30.07 in 10.0 mi South 6.9 mph - N/A   Clear
10:35 PM 68.0 °F 33.8 °F 28% 30.07 in 10.0 mi SSW 6.9 mph - N/A   Clear
10:55 PM 69.8 °F 32.0 °F 25% 30.08 in 10.0 mi South 5.8 mph - N/A   Clear
11:15 PM 68.0 °F 32.0 °F 26% 30.08 in 10.0 mi South 6.9 mph - N/A   Clear
11:35 PM 68.0 °F 32.0 °F 26% 30.08 in 10.0 mi South 5.8 mph - N/A   Clear
11:55 PM 68.0 °F 33.8 °F 28% 30.08 in 10.0 mi SSW 6.9 mph - N/A   Clear